Terminal Aerodrome Forecast
Issued by NWS Greer, SC

Home | Current Version | Previous Version | Text Only | Print | Product List | Glossary On
Versions: 1 2 3 4 5 6 7 8 9 10 11 12 13 14 15 16 17 18 19 20 21 22 23
599
FTUS42 KGSP 171613 AAB
TAFGSP
TAF AMD
KGSP 171613Z 1716/1812 22007KT 3SM BR OVC003
     FM171800 22009KT P6SM OVC015
     FM172000 22009KT P6SM OVC050
     FM180500 22009KT P6SM BKN020=

USA.gov is the U.S. government's official web portal to all federal, state and local government web resources and services.